Terminal Aerodrome Forecast
Issued by NWS

Home | Current Version | Previous Version | Text Only | Print | Product List | Glossary On
Versions: 1 2 3 4 5 6 7 8 9 10 11 12 13
000
FTAK31 PAJN 221857 AAA
TAFASI
TAF AMD
PASI 221857Z 2219/2318 10004KT P6SM VCSH BKN030 OVC050
      TEMPO 2219/2222 VRB04KT 1SM -SHSN BKN010 OVC030
     FM230000 23005KT P6SM -SHSNRA BKN030 OVC040
     FM230600 VRB03KT P6SM VCSH SCT030 BKN050=

USA.gov is the U.S. government's official web portal to all federal, state and local government web resources and services.